Time;durP1;ratioP1;P1;durP2;ratioP2;P2;SDS_P1;SDS_P2;PMS_P1;PMS_P2;Temp;Humidity;BMP_temperature;BMP_pressure;BME280_temperature;BME280_humidity;BME280_pressure;Samples;Min_cycle;Max_cycle;Signal;HPM_P1;HPM_P2
2022/01/03 00:00:43;;;;;;;3.53;1.10;;;12.10;1.00;;;;;;5046970;28;20485;-68
2022/01/03 00:03:13;;;;;;;3.60;1.00;;;12.20;1.00;;;;;;5048608;28;20044;-69
2022/01/03 00:05:42;;;;;;;2.75;1.10;;;12.10;1.00;;;;;;5047971;28;20163;-68
2022/01/03 00:08:10;;;;;;;2.60;1.15;;;12.20;1.00;;;;;;5050039;28;20049;-68
2022/01/03 00:10:38;;;;;;;7.43;1.58;;;12.30;1.00;;;;;;5045064;28;20555;-69
2022/01/03 00:13:06;;;;;;;3.30;0.93;;;12.30;1.00;;;;;;5053325;28;20045;-68
2022/01/03 00:15:36;;;;;;;7.07;1.38;;;12.50;1.00;;;;;;5048207;28;20063;-67
2022/01/03 00:18:04;;;;;;;4.13;1.17;;;12.40;1.00;;;;;;5046678;28;20128;-69
2022/01/03 00:20:32;;;;;;;6.15;1.60;;;12.40;1.00;;;;;;5042250;28;20059;-68
2022/01/03 00:23:03;;;;;;;4.10;1.23;;;12.30;1.00;;;;;;5048882;28;20055;-69
2022/01/03 00:25:34;;;;;;;6.25;1.25;;;12.50;1.00;;;;;;5052939;28;20124;-68
2022/01/03 00:28:11;;;;;;;3.40;0.82;;;12.40;1.00;;;;;;5050604;28;20041;-69
2022/01/03 00:30:41;;;;;;;5.00;1.05;;;12.50;1.00;;;;;;5046960;28;20128;-68
2022/01/03 00:33:09;;;;;;;3.10;1.27;;;12.30;1.00;;;;;;5052357;28;20053;-68
2022/01/03 00:35:39;;;;;;;3.33;1.10;;;12.50;1.00;;;;;;5046682;28;20037;-68
2022/01/03 00:38:09;;;;;;;5.80;1.30;;;12.40;1.00;;;;;;5047101;28;20051;-67
2022/01/03 00:40:37;;;;;;;2.90;1.10;;;12.50;1.00;;;;;;5043282;28;20049;-69
2022/01/03 00:43:06;;;;;;;5.22;1.48;;;12.50;1.00;;;;;;5052150;28;20061;-68
2022/01/03 00:45:34;;;;;;;5.00;1.13;;;12.30;1.00;;;;;;5052318;28;20045;-68
2022/01/03 00:48:07;;;;;;;4.38;1.10;;;12.50;1.00;;;;;;5048585;28;20068;-68
2022/01/03 00:50:35;;;;;;;4.35;1.40;;;12.40;1.00;;;;;;5043675;28;20055;-69
2022/01/03 00:53:04;;;;;;;4.35;1.48;;;12.40;1.00;;;;;;5052305;28;20048;-68
2022/01/03 00:55:32;;;;;;;8.85;1.25;;;12.40;1.00;;;;;;5048888;28;20091;-68
2022/01/03 00:58:13;;;;;;;4.53;1.13;;;12.60;1.00;;;;;;5047732;28;20195;-68
2022/01/03 01:00:43;;;;;;;5.30;1.13;;;12.50;1.00;;;;;;5044385;28;20058;-68
2022/01/03 01:03:17;;;;;;;5.25;1.10;;;12.40;1.00;;;;;;5050127;28;20230;-69
2022/01/03 01:05:48;;;;;;;3.40;1.13;;;12.30;1.00;;;;;;5046894;28;20041;-68
2022/01/03 01:08:18;;;;;;;6.68;1.42;;;12.40;1.00;;;;;;5049200;28;20159;-68
2022/01/03 01:10:50;;;;;;;4.40;1.20;;;12.50;1.00;;;;;;5043060;28;20067;-69
2022/01/03 01:13:19;;;;;;;2.85;0.90;;;12.30;1.00;;;;;;5046073;28;20552;-68
2022/01/03 01:15:48;;;;;;;4.97;1.02;;;12.30;1.00;;;;;;5049990;28;20132;-69
2022/01/03 01:18:25;;;;;;;3.75;1.00;;;12.30;1.00;;;;;;5047698;28;20102;-68
2022/01/03 01:20:53;;;;;;;5.13;1.23;;;12.30;1.00;;;;;;5043766;28;20059;-68
2022/01/03 01:23:22;;;;;;;3.47;0.93;;;12.30;1.00;;;;;;5049798;28;20097;-68
2022/01/03 01:28:37;;;;;;;5.18;1.50;;;12.30;1.00;;;;;;5046703;28;20049;-68
2022/01/03 01:31:06;;;;;;;8.85;2.45;;;12.20;1.00;;;;;;5044745;28;20526;-68
2022/01/03 01:33:37;;;;;;;7.40;1.70;;;12.20;1.00;;;;;;5047922;28;20408;-68
2022/01/03 01:36:13;;;;;;;5.70;1.63;;;12.10;1.00;;;;;;5047812;28;20051;-68
2022/01/03 01:38:43;;;;;;;4.03;1.17;;;12.10;1.00;;;;;;5049015;28;20282;-68
2022/01/03 01:41:11;;;;;;;5.35;1.08;;;12.10;1.00;;;;;;5038258;28;20119;-68
2022/01/03 01:43:42;;;;;;;3.78;1.42;;;12.20;1.00;;;;;;5049129;28;20037;-69
2022/01/03 01:46:13;;;;;;;4.32;1.50;;;12.20;1.00;;;;;;5051050;28;20148;-67
2022/01/03 01:48:44;;;;;;;4.40;1.08;;;12.20;1.00;;;;;;5048009;28;20496;-68
2022/01/03 01:51:14;;;;;;;4.18;0.85;;;12.10;1.00;;;;;;5053208;28;20512;-68
2022/01/03 01:53:45;;;;;;;11.32;1.35;;;12.10;1.00;;;;;;5048847;28;20413;-69
2022/01/03 01:56:19;;;;;;;6.55;1.25;;;12.10;1.00;;;;;;5049950;28;20528;-69
2022/01/03 01:59:07;;;;;;;5.18;1.27;;;12.20;1.00;;;;;;5046096;28;20464;-69
2022/01/03 02:01:44;;;;;;;2.78;0.82;;;12.20;1.00;;;;;;5049201;28;20057;-68
2022/01/03 02:04:28;;;;;;;5.63;1.40;;;12.20;1.00;;;;;;5051877;28;20072;-68
2022/01/03 02:06:57;;;;;;;;;;;12.10;1.00;;;;;;5048704;28;20140;-68
2022/01/03 02:09:38;;;;;;;4.82;1.33;;;12.20;1.00;;;;;;5043676;28;20378;-69
2022/01/03 02:12:14;;;;;;;5.07;1.15;;;12.10;1.00;;;;;;5049922;28;20052;-68
2022/01/03 02:14:43;;;;;;;3.60;1.10;;;12.10;1.00;;;;;;5047705;28;20057;-68
2022/01/03 02:17:11;;;;;;;3.22;1.13;;;12.10;1.00;;;;;;5047506;28;20080;-69
2022/01/03 02:19:41;;;;;;;4.18;1.38;;;12.20;1.00;;;;;;5045766;28;20045;-68
2022/01/03 02:22:11;;;;;;;7.47;1.40;;;12.20;1.00;;;;;;5048582;28;20048;-69
2022/01/03 02:24:41;;;;;;;4.13;1.30;;;12.10;1.00;;;;;;5049896;28;20059;-68
2022/01/03 02:27:09;;;;;;;4.55;1.08;;;12.10;1.00;;;;;;5052780;28;20109;-68
2022/01/03 02:29:37;;;;;;;2.38;1.30;;;12.10;1.00;;;;;;5042159;28;20511;-68
2022/01/03 02:32:05;;;;;;;3.47;1.33;;;12.10;1.00;;;;;;5045631;28;20161;-68
2022/01/03 02:34:33;;;;;;;4.07;1.20;;;12.00;1.00;;;;;;5050405;28;20090;-70
2022/01/03 02:37:03;;;;;;;3.42;1.40;;;12.00;1.00;;;;;;5046916;28;20048;-68
2022/01/03 02:39:31;;;;;;;4.95;1.30;;;12.00;1.00;;;;;;5042698;28;20492;-68
2022/01/03 02:42:01;;;;;;;3.70;0.95;;;12.00;1.00;;;;;;5049869;28;20056;-68
2022/01/03 02:44:31;;;;;;;6.60;1.10;;;12.00;1.00;;;;;;5046403;28;20401;-69
2022/01/03 02:47:00;;;;;;;2.55;1.10;;;12.00;1.00;;;;;;5046053;28;20040;-69
2022/01/03 02:49:28;;;;;;;3.78;1.10;;;12.00;1.00;;;;;;5046634;28;20068;-68
2022/01/03 02:51:56;;;;;;;4.97;1.38;;;11.90;1.00;;;;;;5048412;28;20052;-68
2022/01/03 02:54:25;;;;;;;5.18;1.10;;;11.90;1.00;;;;;;5049922;28;20065;-68
2022/01/03 02:56:57;;;;;;;4.40;1.25;;;12.00;1.00;;;;;;5047824;28;20072;-68
2022/01/03 02:59:25;;;;;;;6.75;1.23;;;11.90;1.00;;;;;;5044799;28;20045;-68
2022/01/03 03:01:53;;;;;;;5.78;1.30;;;12.00;1.00;;;;;;5045096;28;20103;-67
2022/01/03 03:04:21;;;;;;;6.43;1.00;;;12.10;1.00;;;;;;5049889;28;20525;-68
2022/01/03 03:06:50;;;;;;;4.72;1.17;;;11.90;1.00;;;;;;5045595;28;20092;-68
2022/01/03 03:09:20;;;;;;;4.82;1.40;;;11.90;1.00;;;;;;5046513;28;20047;-68
2022/01/03 03:11:49;;;;;;;8.52;1.92;;;11.80;1.00;;;;;;5045658;28;20053;-68
2022/01/03 03:14:18;;;;;;;3.90;1.00;;;11.80;1.00;;;;;;5045374;28;20071;-69
2022/01/03 03:16:47;;;;;;;5.25;1.30;;;11.70;1.00;;;;;;5047947;28;20504;-69
2022/01/03 03:19:17;;;;;;;4.65;1.10;;;11.70;1.00;;;;;;5046801;28;20041;-68
2022/01/03 03:21:45;;;;;;;8.85;1.50;;;11.90;1.00;;;;;;5047058;28;20582;-69
2022/01/03 03:24:13;;;;;;;5.85;1.30;;;11.90;1.00;;;;;;5049418;28;20049;-68
2022/01/03 03:26:42;;;;;;;6.47;1.40;;;11.80;1.00;;;;;;5055004;28;20047;-69
2022/01/03 03:29:11;;;;;;;6.65;1.60;;;11.80;1.00;;;;;;5040811;28;20051;-68
2022/01/03 03:31:39;;;;;;;5.05;1.20;;;11.80;1.00;;;;;;5048387;28;20518;-68
2022/01/03 03:34:07;;;;;;;4.78;1.42;;;11.70;1.00;;;;;;5054541;28;20052;-69
2022/01/03 03:36:37;;;;;;;5.15;1.40;;;11.80;1.00;;;;;;5047989;28;20049;-70
2022/01/03 03:39:05;;;;;;;5.00;1.13;;;11.70;1.00;;;;;;5059533;28;20070;-68
2022/01/03 03:41:33;;;;;;;3.05;1.20;;;11.70;1.00;;;;;;5057311;28;20634;-68
2022/01/03 03:44:01;;;;;;;6.32;1.80;;;11.80;1.00;;;;;;5051147;28;20131;-67
2022/01/03 03:46:30;;;;;;;4.28;1.23;;;11.60;1.00;;;;;;5050960;28;20057;-68
2022/01/03 03:48:59;;;;;;;7.57;1.38;;;11.70;1.00;;;;;;5052503;28;20515;-68
2022/01/03 03:51:28;;;;;;;6.70;1.48;;;11.70;1.00;;;;;;5046191;28;20071;-68
2022/01/03 03:53:56;;;;;;;5.68;1.75;;;11.60;1.00;;;;;;5049311;28;20587;-68
2022/01/03 03:56:23;;;;;;;4.82;0.90;;;11.60;1.00;;;;;;5049678;28;20762;-68
2022/01/03 03:58:51;;;;;;;6.63;1.40;;;11.60;1.00;;;;;;5051208;28;20116;-68
2022/01/03 04:01:19;;;;;;;4.07;1.35;;;11.50;1.00;;;;;;5051660;28;20102;-68
2022/01/03 04:03:49;;;;;;;6.68;1.48;;;11.40;1.00;;;;;;5053900;28;20114;-68
2022/01/03 04:06:19;;;;;;;6.57;1.60;;;11.50;1.00;;;;;;5054649;28;20059;-67
2022/01/03 04:08:47;;;;;;;5.25;1.20;;;11.50;1.00;;;;;;5053708;28;20048;-68
2022/01/03 04:11:15;;;;;;;4.60;1.58;;;11.40;1.00;;;;;;5046671;28;20057;-68
2022/01/03 04:13:42;;;;;;;5.43;1.20;;;11.30;1.00;;;;;;5055081;28;20135;-68
2022/01/03 04:16:12;;;;;;;6.90;1.10;;;11.30;1.00;;;;;;5057807;28;20515;-68
2022/01/03 04:18:40;;;;;;;7.88;1.52;;;11.30;1.00;;;;;;5056835;28;20106;-68
2022/01/03 04:21:09;;;;;;;5.30;1.48;;;11.30;1.00;;;;;;5049831;28;20068;-69
2022/01/03 04:23:37;;;;;;;8.90;2.13;;;11.40;1.00;;;;;;5049672;28;20037;-68
2022/01/03 04:26:05;;;;;;;7.95;1.17;;;11.40;1.00;;;;;;5050602;28;20044;-68
2022/01/03 04:28:33;;;;;;;5.28;1.40;;;11.50;1.00;;;;;;5053421;28;20547;-68
2022/01/03 04:31:02;;;;;;;8.88;1.40;;;11.30;1.00;;;;;;5044768;28;20049;-67
2022/01/03 04:33:30;;;;;;;3.33;1.05;;;11.30;1.00;;;;;;5050589;28;20048;-68
2022/01/03 04:35:58;;;;;;;6.40;1.23;;;11.30;1.00;;;;;;5052259;28;20302;-68
2022/01/03 04:38:27;;;;;;;9.55;1.40;;;11.30;1.00;;;;;;5050196;28;20132;-68
2022/01/03 04:40:55;;;;;;;8.50;1.38;;;11.30;1.00;;;;;;5045267;28;20526;-68
2022/01/03 04:43:23;;;;;;;9.15;1.58;;;11.30;1.00;;;;;;5048335;28;20072;-68
2022/01/03 04:45:51;;;;;;;7.13;1.52;;;11.40;1.00;;;;;;5050819;28;20056;-67
2022/01/03 04:48:19;;;;;;;6.55;1.05;;;11.30;1.00;;;;;;5049373;28;20033;-67
2022/01/03 04:50:47;;;;;;;5.55;1.60;;;10.90;1.00;;;;;;5046411;28;20039;-67
2022/01/03 04:53:16;;;;;;;3.33;1.00;;;10.60;1.00;;;;;;5050769;28;20060;-66
2022/01/03 04:55:45;;;;;;;5.10;0.95;;;10.30;2.90;;;;;;5049570;28;20077;-67
2022/01/03 04:58:13;;;;;;;7.15;1.70;;;10.10;6.60;;;;;;5049810;28;20044;-67
2022/01/03 05:00:42;;;;;;;6.32;1.30;;;9.80;13.10;;;;;;5044706;28;20037;-68
2022/01/03 05:03:10;;;;;;;10.68;1.45;;;9.50;19.30;;;;;;5051370;28;20124;-67
2022/01/03 05:05:38;;;;;;;5.50;1.23;;;9.30;23.80;;;;;;5049209;28;20140;-67
2022/01/03 05:08:06;;;;;;;5.00;1.13;;;9.20;26.30;;;;;;5045845;28;20065;-68
2022/01/03 05:10:34;;;;;;;3.15;1.05;;;9.20;27.10;;;;;;5044279;28;20049;-68
2022/01/03 05:13:05;;;;;;;5.15;1.00;;;9.20;28.70;;;;;;5052557;28;20105;-67
2022/01/03 05:15:33;;;;;;;5.00;1.10;;;9.10;29.10;;;;;;5047798;28;20237;-68
2022/01/03 05:18:01;;;;;;;4.80;1.25;;;9.10;30.30;;;;;;5049368;28;20099;-68
2022/01/03 05:20:29;;;;;;;5.57;1.20;;;9.10;31.00;;;;;;5044495;28;20124;-68
2022/01/03 05:22:57;;;;;;;6.78;1.23;;;9.10;32.20;;;;;;5047745;28;20135;-68
2022/01/03 05:25:26;;;;;;;5.93;1.50;;;9.10;33.00;;;;;;5050467;28;20452;-68
2022/01/03 05:27:54;;;;;;;3.40;1.30;;;9.10;33.90;;;;;;5048814;28;20052;-68
2022/01/03 05:30:23;;;;;;;4.22;1.10;;;9.10;34.20;;;;;;5044685;28;20511;-67
2022/01/03 05:32:51;;;;;;;5.18;1.40;;;9.10;34.90;;;;;;5048069;28;20110;-67
2022/01/03 05:35:23;;;;;;;7.07;1.90;;;9.10;34.70;;;;;;5048854;28;20134;-67
2022/01/03 05:37:51;;;;;;;7.20;1.67;;;9.10;34.10;;;;;;5047861;28;20044;-67
2022/01/03 05:40:20;;;;;;;5.60;1.40;;;9.10;33.00;;;;;;5046840;28;20044;-67
2022/01/03 05:42:48;;;;;;;7.40;1.60;;;9.10;33.00;;;;;;5048079;28;20053;-67
2022/01/03 05:45:16;;;;;;;9.23;1.98;;;9.10;33.00;;;;;;5046632;28;20056;-67
2022/01/03 05:47:46;;;;;;;8.95;1.63;;;9.10;32.90;;;;;;5048848;28;20056;-67
2022/01/03 05:50:16;;;;;;;9.95;2.28;;;9.20;31.90;;;;;;5043945;28;20048;-68
2022/01/03 05:52:44;;;;;;;5.80;1.38;;;9.20;30.70;;;;;;5047533;28;20381;-67
2022/01/03 05:55:12;;;;;;;6.47;1.85;;;9.20;30.60;;;;;;5050313;28;20049;-68
2022/01/03 05:57:41;;;;;;;4.30;1.75;;;9.30;31.00;;;;;;5046733;28;20048;-67
2022/01/03 06:00:13;;;;;;;6.45;1.75;;;9.30;30.90;;;;;;5045011;28;20435;-68
2022/01/03 06:02:42;;;;;;;8.50;1.42;;;9.30;30.30;;;;;;5064514;28;20184;-67
2022/01/03 06:05:20;;;;;;;6.38;1.58;;;9.40;29.50;;;;;;5060626;28;20124;-67
2022/01/03 06:07:48;;;;;;;9.93;2.03;;;9.40;29.20;;;;;;5049266;28;20040;-66
2022/01/03 06:10:17;;;;;;;4.78;1.25;;;9.40;28.60;;;;;;5045347;28;20041;-67
2022/01/03 06:12:47;;;;;;;4.47;1.40;;;9.40;28.20;;;;;;5046063;28;20052;-68
2022/01/03 06:15:15;;;;;;;4.15;1.40;;;9.50;26.80;;;;;;5046080;28;20045;-67
2022/01/03 06:17:44;;;;;;;6.35;1.63;;;9.60;25.20;;;;;;5048496;28;20501;-69
2022/01/03 06:20:14;;;;;;;4.80;1.60;;;9.50;25.20;;;;;;5042743;28;20056;-68
2022/01/03 06:22:42;;;;;;;7.47;1.63;;;9.60;25.20;;;;;;5048910;28;20045;-68
2022/01/03 06:25:11;;;;;;;6.18;1.92;;;9.50;25.20;;;;;;5048762;28;20040;-68
2022/01/03 06:27:40;;;;;;;3.83;1.42;;;9.60;23.50;;;;;;5046426;28;20055;-68
2022/01/03 06:30:11;;;;;;;7.47;1.88;;;9.60;23.40;;;;;;5044815;28;20045;-67
2022/01/03 06:32:39;;;;;;;5.40;1.50;;;9.60;21.40;;;;;;5045890;28;20053;-66
2022/01/03 06:35:08;;;;;;;6.30;2.05;;;9.70;20.50;;;;;;5048617;28;20049;-69
2022/01/03 06:37:38;;;;;;;6.50;1.83;;;9.60;21.20;;;;;;5049456;28;20128;-68
2022/01/03 06:40:08;;;;;;;6.70;1.60;;;9.60;20.50;;;;;;5045530;28;20144;-67
2022/01/03 06:42:36;;;;;;;6.93;1.70;;;9.60;20.70;;;;;;5045785;28;20580;-68
2022/01/03 06:45:04;;;;;;;4.43;1.05;;;9.60;20.60;;;;;;5049779;28;20534;-69
2022/01/03 06:47:32;;;;;;;5.22;1.60;;;9.50;20.20;;;;;;5047508;28;20523;-69
2022/01/03 06:50:00;;;;;;;8.15;1.30;;;9.60;20.20;;;;;;5044018;28;20044;-68
2022/01/03 06:52:29;;;;;;;5.90;1.60;;;9.50;20.70;;;;;;5049304;28;20034;-68
2022/01/03 06:54:59;;;;;;;4.72;1.23;;;9.50;20.60;;;;;;5050658;28;20072;-67
2022/01/03 06:57:27;;;;;;;5.32;1.02;;;9.50;20.70;;;;;;5050283;28;20045;-67
2022/01/03 06:59:55;;;;;;;6.78;1.30;;;9.50;20.90;;;;;;5047934;28;20563;-68
2022/01/03 07:02:23;;;;;;;7.78;1.42;;;9.50;20.60;;;;;;5056198;28;20139;-68
2022/01/03 07:04:51;;;;;;;8.70;1.70;;;9.60;20.40;;;;;;5051234;28;20135;-68
2022/01/03 07:07:19;;;;;;;5.43;1.10;;;9.60;20.20;;;;;;5052203;28;20044;-68
2022/01/03 07:09:48;;;;;;;5.15;1.20;;;9.60;19.00;;;;;;5049581;28;20120;-68
2022/01/03 07:12:17;;;;;;;6.50;1.50;;;9.60;18.70;;;;;;5049797;28;20041;-68
2022/01/03 07:20:16;;;;;;;7.07;1.60;;;9.50;19.60;;;;;;5045916;28;20053;-67
2022/01/03 07:22:44;;;;;;;5.75;1.77;;;9.50;19.90;;;;;;5052565;28;20037;-67
2022/01/03 07:25:13;;;;;;;7.78;1.67;;;9.50;19.70;;;;;;5054248;28;20040;-68
2022/01/03 07:27:42;;;;;;;5.55;1.58;;;9.50;20.00;;;;;;5049592;28;20680;-67
2022/01/03 07:30:11;;;;;;;6.20;1.52;;;9.50;19.70;;;;;;5046255;28;20124;-67
2022/01/03 07:32:41;;;;;;;9.00;1.77;;;9.50;20.20;;;;;;5052384;28;20136;-66
2022/01/03 07:35:13;;;;;;;7.22;1.95;;;9.50;20.40;;;;;;5050861;28;20132;-68
2022/01/03 07:37:41;;;;;;;7.22;2.20;;;9.50;21.50;;;;;;5050354;28;20401;-68
2022/01/03 07:40:10;;;;;;;9.45;3.10;;;9.50;22.40;;;;;;5050311;28;20044;-67
2022/01/03 07:42:40;;;;;;;7.47;2.05;;;9.50;23.00;;;;;;5050947;28;20127;-68
2022/01/03 07:45:13;;;;;;;9.10;1.80;;;9.40;24.00;;;;;;5053010;28;20049;-67
2022/01/03 07:47:41;;;;;;;6.47;1.92;;;9.50;23.40;;;;;;5051127;28;20044;-68
2022/01/03 07:50:11;;;;;;;4.45;1.13;;;9.40;23.70;;;;;;5044941;28;20052;-67
2022/01/03 07:52:39;;;;;;;7.13;1.45;;;9.40;23.80;;;;;;5052502;28;20043;-67
2022/01/03 07:55:12;;;;;;;6.68;1.38;;;9.40;24.00;;;;;;5053588;28;20045;-68
2022/01/03 07:57:40;;;;;;;9.02;1.70;;;9.40;23.70;;;;;;5049513;28;20053;-66
2022/01/03 08:00:10;;;;;;;12.43;4.75;;;9.40;24.00;;;;;;5058607;28;20139;-68
2022/01/03 08:02:41;;;;;;;8.60;2.15;;;9.40;24.80;;;;;;5070985;28;20049;-67
2022/01/03 08:05:12;;;;;;;6.72;1.27;;;9.40;24.80;;;;;;5067818;28;20166;-67
2022/01/03 08:07:40;;;;;;;4.85;1.40;;;9.40;24.70;;;;;;5067657;28;20128;-68
2022/01/03 08:10:10;;;;;;;4.85;1.70;;;9.40;24.80;;;;;;5068474;28;20053;-67
2022/01/03 08:12:39;;;;;;;11.30;2.25;;;9.40;25.40;;;;;;5067698;28;20124;-67
2022/01/03 08:15:12;;;;;;;7.88;2.05;;;9.40;25.90;;;;;;5074239;28;20076;-68
2022/01/03 08:17:44;;;;;;;9.85;1.67;;;9.30;27.00;;;;;;5069687;28;20492;-67
2022/01/03 08:20:12;;;;;;;9.90;1.60;;;9.30;28.70;;;;;;5046941;28;20552;-69
2022/01/03 08:22:41;;;;;;;8.98;2.00;;;9.20;30.30;;;;;;5070904;28;20387;-69
2022/01/03 08:25:09;;;;;;;7.53;1.90;;;9.10;32.40;;;;;;5071204;28;20106;-69
2022/01/03 08:27:37;;;;;;;10.10;2.60;;;9.10;34.70;;;;;;5068304;28;20040;-68
2022/01/03 08:30:06;;;;;;;10.02;2.00;;;9.10;36.20;;;;;;5052693;28;20044;-68
2022/01/03 08:32:34;;;;;;;9.75;2.25;;;9.10;37.20;;;;;;5048212;28;20053;-69
2022/01/03 08:35:04;;;;;;;7.30;1.73;;;9.20;37.30;;;;;;5049182;28;20128;-67
2022/01/03 08:37:32;;;;;;;9.07;2.60;;;9.20;36.90;;;;;;5050618;28;20045;-68
2022/01/03 08:40:03;;;;;;;9.18;2.78;;;9.20;37.30;;;;;;5049345;28;20049;-69
2022/01/03 08:42:31;;;;;;;13.38;2.33;;;9.20;38.00;;;;;;5048334;28;20087;-67
2022/01/03 08:45:03;;;;;;;8.82;2.38;;;9.20;38.70;;;;;;5050460;28;20127;-66
2022/01/03 08:47:31;;;;;;;9.55;2.13;;;9.20;39.50;;;;;;5048744;28;20497;-68
2022/01/03 08:49:58;;;;;;;6.28;2.13;;;9.20;40.70;;;;;;5049335;28;20395;-67
2022/01/03 08:52:28;;;;;;;8.48;2.28;;;9.20;40.60;;;;;;5049702;28;20072;-67
2022/01/03 08:54:56;;;;;;;7.20;2.25;;;9.20;43.20;;;;;;5051348;28;20080;-69
2022/01/03 08:57:24;;;;;;;13.77;2.88;;;9.20;43.40;;;;;;5047998;28;20106;-68
2022/01/03 08:59:53;;;;;;;9.52;2.38;;;9.20;44.40;;;;;;5047319;28;20053;-67
2022/01/03 09:02:23;;;;;;;4.47;1.98;;;9.20;45.10;;;;;;5047085;28;20504;-68
2022/01/03 09:04:51;;;;;;;13.70;2.90;;;9.20;45.10;;;;;;5049287;28;20500;-67
2022/01/03 09:07:19;;;;;;;11.93;2.97;;;9.20;45.70;;;;;;5050422;28;20059;-68
2022/01/03 09:09:49;;;;;;;10.90;2.50;;;9.20;45.50;;;;;;5045921;28;20523;-68
2022/01/03 09:12:17;;;;;;;9.98;2.60;;;9.30;43.40;;;;;;5047909;28;20053;-67
2022/01/03 09:14:45;;;;;;;10.95;2.08;;;9.40;44.00;;;;;;5050781;28;20057;-68
2022/01/03 09:17:13;;;;;;;13.30;3.30;;;9.30;43.60;;;;;;5048664;28;20076;-68
2022/01/03 09:19:41;;;;;;;8.48;2.58;;;9.40;43.90;;;;;;5046997;28;20041;-68
2022/01/03 09:22:14;;;;;;;11.48;2.70;;;9.40;43.50;;;;;;5051207;28;20078;-66
2022/01/03 09:24:54;;;;;;;8.18;2.55;;;9.40;41.70;;;;;;5048669;28;20098;-67
2022/01/03 09:30:11;;;;;;;6.78;2.65;;;9.60;40.60;;;;;;5047096;28;20041;-68
2022/01/03 09:32:39;;;;;;;7.38;2.42;;;9.70;39.70;;;;;;5048575;28;20137;-66
2022/01/03 09:35:09;;;;;;;8.48;2.50;;;9.60;39.20;;;;;;5050441;28;20066;-67
2022/01/03 09:37:39;;;;;;;8.48;2.15;;;9.60;38.80;;;;;;5068195;28;20032;-68
2022/01/03 09:40:09;;;;;;;13.32;3.17;;;9.50;38.90;;;;;;5067624;28;20044;-67
2022/01/03 09:42:39;;;;;;;8.50;3.58;;;9.60;40.20;;;;;;5067968;28;20140;-67
2022/01/03 09:45:11;;;;;;;11.27;3.15;;;9.60;40.00;;;;;;5070468;28;20050;-67
2022/01/03 09:47:42;;;;;;;14.75;2.50;;;9.60;39.60;;;;;;5065760;28;20072;-68
2022/01/03 09:50:12;;;;;;;12.60;2.50;;;9.60;38.00;;;;;;5063050;28;20106;-67
2022/01/03 09:52:42;;;;;;;10.35;2.78;;;9.60;37.70;;;;;;5066669;28;20047;-68
2022/01/03 09:55:11;;;;;;;7.55;3.22;;;9.70;37.70;;;;;;5070700;28;20040;-68
2022/01/03 09:57:44;;;;;;;9.45;3.00;;;9.70;37.70;;;;;;5064388;28;20036;-67
2022/01/03 10:00:13;;;;;;;9.50;2.78;;;9.70;35.90;;;;;;5062527;28;20055;-67
2022/01/03 10:02:44;;;;;;;13.68;3.17;;;9.80;36.90;;;;;;5064309;28;20727;-68
2022/01/03 10:05:14;;;;;;;7.03;2.53;;;9.80;37.20;;;;;;5063819;28;20453;-67
2022/01/03 10:07:42;;;;;;;8.00;2.80;;;9.80;35.70;;;;;;5066938;28;20054;-67
2022/01/03 10:10:11;;;;;;;10.07;2.67;;;9.80;33.00;;;;;;5062793;28;20044;-68
2022/01/03 10:12:41;;;;;;;9.55;2.60;;;9.90;33.70;;;;;;5063354;28;20052;-67
2022/01/03 10:15:10;;;;;;;6.55;2.58;;;9.90;33.30;;;;;;5065674;28;20119;-68
2022/01/03 10:17:41;;;;;;;9.90;2.38;;;10.00;30.20;;;;;;5064351;28;20062;-68
2022/01/03 10:20:16;;;;;;;6.35;2.38;;;10.00;29.90;;;;;;5062042;28;20051;-66
2022/01/03 10:22:44;;;;;;;10.15;2.33;;;10.10;30.60;;;;;;5067937;28;20110;-67
2022/01/03 10:25:17;;;;;;;12.30;5.78;;;10.10;29.00;;;;;;5071907;28;20052;-68
2022/01/03 10:27:54;;;;;;;9.80;3.65;;;10.20;29.00;;;;;;5070367;28;20127;-67
2022/01/03 10:30:36;;;;;;;8.95;3.10;;;10.20;30.00;;;;;;5064817;28;20068;-68
2022/01/03 10:33:05;;;;;;;11.38;4.72;;;10.20;30.70;;;;;;5065931;28;20040;-67
2022/01/03 10:35:39;;;;;;;10.15;2.70;;;10.10;28.30;;;;;;5064281;28;20503;-68
2022/01/03 10:38:08;;;;;;;9.55;2.95;;;10.20;27.10;;;;;;5065646;28;20567;-68
2022/01/03 10:40:37;;;;;;;7.55;2.45;;;10.20;26.90;;;;;;5065170;28;20079;-66
2022/01/03 10:43:18;;;;;;;9.10;2.33;;;10.20;27.20;;;;;;5065694;28;20048;-67
2022/01/03 10:45:47;;;;;;;7.90;2.30;;;10.30;24.60;;;;;;5063275;28;20053;-68
2022/01/03 10:48:29;;;;;;;9.57;2.38;;;10.40;22.70;;;;;;5071192;28;20059;-69
2022/01/03 10:50:59;;;;;;;12.93;3.25;;;10.50;21.20;;;;;;5059361;28;20411;-67
2022/01/03 10:53:39;;;;;;;8.38;2.63;;;10.40;23.00;;;;;;5067156;28;20382;-68
2022/01/03 10:56:30;;;;;;;7.82;2.17;;;10.50;22.70;;;;;;5062530;28;20106;-68
2022/01/03 10:59:21;;;;;;;9.40;2.60;;;10.60;20.40;;;;;;5047838;28;20407;-67
2022/01/03 11:02:02;;;;;;;7.97;2.67;;;10.70;19.90;;;;;;5062447;28;20538;-68
2022/01/03 11:04:37;;;;;;;6.88;2.10;;;10.70;19.00;;;;;;5065756;28;20268;-68
2022/01/03 11:13:11;;;;;;;10.80;2.58;;;10.80;17.10;;;;;;5062799;28;20506;-67
2022/01/03 11:15:42;;;;;;;13.02;2.97;;;10.90;16.80;;;;;;5064044;28;20055;-67
2022/01/03 11:18:14;;;;;;;7.03;2.45;;;10.90;16.70;;;;;;5061253;28;20047;-68
2022/01/03 11:20:44;;;;;;;8.90;2.83;;;10.90;17.40;;;;;;5060924;28;20475;-67
2022/01/03 11:23:22;;;;;;;10.77;2.60;;;10.90;19.80;;;;;;5064183;28;20500;-68
2022/01/03 11:25:53;;;;;;;10.73;2.58;;;11.00;17.20;;;;;;5063293;28;20040;-68
2022/01/03 11:28:23;;;;;;;13.60;2.70;;;11.00;16.80;;;;;;5065391;28;20556;-68
2022/01/03 11:31:11;;;;;;;9.98;2.25;;;11.00;17.20;;;;;;5061960;28;20154;-67
2022/01/03 11:33:41;;;;;;;8.45;2.63;;;11.10;13.90;;;;;;5066123;28;20128;-69
2022/01/03 11:36:30;;;;;;;8.88;2.40;;;11.10;13.90;;;;;;5062836;28;20049;-68
2022/01/03 11:39:07;;;;;;;7.30;2.80;;;11.10;12.20;;;;;;5062641;28;20415;-68
2022/01/03 11:41:37;;;;;;;8.88;2.50;;;11.10;14.30;;;;;;5063711;28;20135;-68
2022/01/03 11:44:06;;;;;;;7.35;2.67;;;11.20;12.70;;;;;;5067179;28;20113;-68
2022/01/03 11:46:37;;;;;;;8.45;2.30;;;11.20;12.30;;;;;;5067058;28;20416;-68
2022/01/03 11:49:06;;;;;;;5.97;2.22;;;11.30;11.10;;;;;;5067638;28;20055;-68
2022/01/03 11:51:37;;;;;;;13.82;2.63;;;11.30;11.30;;;;;;5066308;28;20064;-68
2022/01/03 11:54:09;;;;;;;9.52;2.58;;;11.30;14.40;;;;;;5067111;28;20037;-68
2022/01/03 11:56:42;;;;;;;6.50;2.42;;;11.30;14.00;;;;;;5066446;28;20239;-69
2022/01/03 11:59:24;;;;;;;6.40;1.90;;;11.40;12.40;;;;;;5067886;28;20115;-69
2022/01/03 12:05:01;;;;;;;8.40;2.22;;;11.60;12.40;;;;;;5066359;28;20059;-69
2022/01/03 12:07:30;;;;;;;5.68;1.73;;;11.60;11.00;;;;;;5033784;28;20091;-68
2022/01/03 12:10:09;;;;;;;7.15;1.95;;;11.70;10.30;;;;;;5065979;28;20053;-69
2022/01/03 12:12:39;;;;;;;4.82;2.13;;;11.70;8.80;;;;;;5065792;28;20632;-69
2022/01/03 12:15:33;;;;;;;6.25;2.17;;;11.70;6.30;;;;;;5065762;28;20058;-69
2022/01/03 12:18:03;;;;;;;6.63;1.88;;;11.70;5.20;;;;;;5066440;28;20123;-69
2022/01/03 12:20:41;;;;;;;6.18;1.85;;;11.80;6.30;;;;;;5063187;28;20059;-67
2022/01/03 12:23:09;;;;;;;4.53;1.95;;;11.80;3.60;;;;;;5069408;28;20063;-70
2022/01/03 12:25:39;;;;;;;3.85;1.60;;;11.80;4.00;;;;;;5066706;28;20044;-68
2022/01/03 12:28:08;;;;;;;8.77;2.13;;;11.90;2.40;;;;;;5071144;28;20528;-68
2022/01/03 12:30:37;;;;;;;2.70;1.20;;;11.90;1.00;;;;;;5063790;28;20070;-69
2022/01/03 12:33:22;;;;;;;3.92;1.20;;;12.00;1.00;;;;;;5070561;28;20076;-69
2022/01/03 12:35:50;;;;;;;;;;;12.00;1.00;;;;;;5068332;28;20075;-68
2022/01/03 12:38:23;;;;;;;3.38;1.05;;;12.00;1.00;;;;;;5067626;28;19920;-68
2022/01/03 12:41:01;;;;;;;4.32;1.00;;;12.00;1.00;;;;;;5062100;28;20450;-69
2022/01/03 12:43:50;;;;;;;3.13;1.05;;;12.00;1.00;;;;;;5068083;28;20045;-69
2022/01/03 12:46:24;;;;;;;3.42;1.30;;;12.00;1.00;;;;;;5066236;28;20047;-69
2022/01/03 12:48:58;;;;;;;3.97;0.90;;;12.00;1.00;;;;;;5067891;28;20467;-68
2022/01/03 12:51:37;;;;;;;4.30;0.90;;;11.90;1.00;;;;;;5066233;28;20048;-68
2022/01/03 12:54:07;;;;;;;2.42;0.93;;;11.90;1.00;;;;;;5067587;28;20071;-69
2022/01/03 12:56:37;;;;;;;6.32;1.20;;;11.90;1.00;;;;;;5066721;28;20132;-69
2022/01/03 12:59:14;;;;;;;2.78;0.82;;;11.90;1.00;;;;;;5067376;28;20539;-68
2022/01/03 13:01:42;;;;;;;8.30;1.00;;;11.90;1.00;;;;;;5065428;28;20079;-68
2022/01/03 13:04:24;;;;;;;5.57;1.10;;;12.00;1.00;;;;;;5067171;28;20143;-68
2022/01/03 13:07:01;;;;;;;6.25;1.17;;;12.00;1.00;;;;;;5064789;28;20504;-69
2022/01/03 13:09:29;;;;;;;3.95;1.23;;;11.90;1.00;;;;;;5046696;28;20184;-69
2022/01/03 13:12:03;;;;;;;4.45;1.00;;;11.90;1.00;;;;;;5040542;28;20590;-69
2022/01/03 13:14:31;;;;;;;2.45;1.00;;;11.90;1.00;;;;;;5046487;28;20094;-69
2022/01/03 13:17:00;;;;;;;6.00;1.23;;;11.80;1.00;;;;;;5043763;28;20067;-70
2022/01/03 13:19:33;;;;;;;2.60;1.02;;;11.80;1.00;;;;;;5044964;28;20048;-68
2022/01/03 13:22:03;;;;;;;4.57;1.40;;;11.80;1.00;;;;;;5034467;28;20057;-69
2022/01/03 13:24:33;;;;;;;7.18;1.33;;;11.80;1.00;;;;;;5047352;28;20200;-68
2022/01/03 13:27:06;;;;;;;4.60;1.17;;;11.80;1.00;;;;;;5046162;28;20041;-69
2022/01/03 13:29:39;;;;;;;7.03;3.30;;;11.70;1.00;;;;;;5043242;28;20055;-68
2022/01/03 13:32:08;;;;;;;2.80;1.10;;;11.70;1.00;;;;;;5045392;28;20131;-68